Terminal Aerodrome Forecast
Issued by NWS Detroit/Pontiac, MI

Home | Current Version | Previous Version | Text Only | Print | Product List | Glossary On
Versions: 1 2 3 4 5 6 7 8 9 10 11 12 13 14 15
141
FTUS43 KDTX 161121
TAFFNT
TAF
KFNT 161121Z 1612/1712 VRB03KT 5SM BR BKN250
     FM161400 20004KT P6SM OVC100
     FM161700 VRB04KT P6SM SCT040 OVC060
      TEMPO 1618/1622 2SM -SNPL OVC040
     FM162200 12005KT 4SM -FZRAPL BKN020 OVC040
     FM170200 10006KT 2SM -FZRA BR OVC012
     FM170500 10010KT 2SM RA BR OVC006=

USA.gov is the U.S. government's official web portal to all federal, state and local government web resources and services.